Time;durP1;ratioP1;P1;durP2;ratioP2;P2;SDS_P1;SDS_P2;PMS_P1;PMS_P2;Temp;Humidity;BMP_temperature;BMP_pressure;BME280_temperature;BME280_humidity;BME280_pressure;Samples;Min_cycle;Max_cycle;Signal;HPM_P1;HPM_P2
2023/12/07 00:02:07;;;;;;;43.97;18.97;;;;;;;7.13;96.32;96584.09;4912562;29;20714;-71
2023/12/07 00:04:34;;;;;;;38.60;17.47;;;;;;;7.21;95.56;96584.63;4913809;29;20653;-71
2023/12/07 00:07:01;;;;;;;41.33;18.17;;;;;;;7.29;95.88;96593.69;4895607;29;20303;-70
2023/12/07 00:09:28;;;;;;;45.07;19.50;;;;;;;7.32;94.68;96574.69;4914381;29;20200;-69
2023/12/07 00:11:55;;;;;;;35.57;16.70;;;;;;;7.42;95.26;96583.72;4912568;29;20205;-74
2023/12/07 00:14:23;;;;;;;41.17;18.07;;;;;;;7.41;94.80;96594.94;4913574;29;20601;-71
2023/12/07 00:16:50;;;;;;;33.50;17.10;;;;;;;7.44;94.36;96586.25;4896373;29;20209;-72
2023/12/07 00:19:17;;;;;;;41.93;18.53;;;;;;;7.40;94.45;96573.50;4913934;29;20209;-71
2023/12/07 00:21:44;;;;;;;43.40;19.07;;;;;;;7.37;94.83;96593.41;4912471;29;20200;-71
2023/12/07 00:24:11;;;;;;;43.53;18.60;;;;;;;7.44;94.79;96599.16;4912269;29;20190;-69
2023/12/07 00:26:39;;;;;;;42.73;17.83;;;;;;;7.49;94.18;96598.03;4913478;29;20617;-71
2023/12/07 00:29:06;;;;;;;34.43;17.10;;;;;;;7.45;93.30;96570.75;4911068;29;20202;-72
2023/12/07 00:31:33;;;;;;;37.80;17.77;;;;;;;7.49;93.39;96603.19;4913540;29;20243;-71
2023/12/07 00:34:00;;;;;;;39.27;17.57;;;;;;;7.16;93.64;96581.38;4912817;29;20210;-74
2023/12/07 00:36:27;;;;;;;44.03;18.40;;;;;;;7.36;93.48;96602.84;4912843;29;20277;-70
2023/12/07 00:38:54;;;;;;;43.83;17.80;;;;;;;7.42;93.42;96616.41;4913084;29;20224;-72
2023/12/07 00:41:21;;;;;;;40.33;17.20;;;;;;;7.22;94.37;96612.03;4910640;29;20263;-71
2023/12/07 00:43:48;;;;;;;41.57;18.37;;;;;;;7.00;94.59;96603.47;4913286;29;20209;-72
2023/12/07 00:46:16;;;;;;;43.03;19.10;;;;;;;6.87;95.46;96612.53;4911995;29;20206;-70
2023/12/07 00:48:43;;;;;;;43.00;18.00;;;;;;;6.99;95.09;96622.38;4913289;29;20284;-70
2023/12/07 00:51:10;;;;;;;38.30;17.70;;;;;;;7.00;95.43;96624.06;4912134;29;20269;-70
2023/12/07 00:53:37;;;;;;;40.87;18.30;;;;;;;6.85;96.04;96619.50;4912793;29;20222;-72
2023/12/07 00:56:05;;;;;;;34.40;16.10;;;;;;;6.54;96.47;96591.50;4912799;29;20716;-70
2023/12/07 00:58:32;;;;;;;39.70;16.53;;;;;;;6.51;97.61;96612.22;4912349;29;20298;-70
2023/12/07 01:01:00;;;;;;;34.27;15.03;;;;;;;6.55;97.67;96609.44;4913242;29;20192;-70
2023/12/07 01:03:27;;;;;;;40.20;15.90;;;;;;;6.48;98.01;96602.88;4895089;29;20212;-70
2023/12/07 01:05:54;;;;;;;37.80;17.33;;;;;;;6.56;97.48;96603.41;4913146;29;20192;-70
2023/12/07 01:08:21;;;;;;;34.77;15.23;;;;;;;6.67;97.50;96604.75;4910560;29;20206;-73
2023/12/07 01:10:50;;;;;;;34.37;14.70;;;;;;;6.63;96.21;96608.34;4912889;29;20214;-75
2023/12/07 01:13:17;;;;;;;37.63;14.07;;;;;;;6.69;96.29;96601.22;4912860;29;20294;-75
2023/12/07 01:15:44;;;;;;;35.60;14.90;;;;;;;6.71;96.07;96606.31;4913077;29;20236;-73
2023/12/07 01:18:11;;;;;;;32.40;13.57;;;;;;;6.33;95.75;96554.56;4915033;29;20209;-72
2023/12/07 01:20:38;;;;;;;35.90;13.80;;;;;;;6.74;96.50;96604.44;4911570;29;20749;-72
2023/12/07 01:23:06;;;;;;;36.97;14.13;;;;;;;6.66;95.34;96596.19;4912846;29;20210;-71
2023/12/07 01:25:33;;;;;;;31.97;13.43;;;;;;;6.76;95.82;96589.78;4911781;29;20330;-74
2023/12/07 01:28:00;;;;;;;34.97;14.10;;;;;;;6.74;95.38;96591.59;4912570;29;20288;-72
2023/12/07 01:30:27;;;;;;;30.53;13.07;;;;;;;6.81;94.48;96597.34;4912055;29;20204;-75
2023/12/07 01:32:55;;;;;;;33.83;13.07;;;;;;;6.86;95.83;96606.56;4911810;29;20196;-72
2023/12/07 01:35:22;;;;;;;26.27;12.20;;;;;;;6.95;94.12;96592.50;4912108;29;20258;-74
2023/12/07 01:37:49;;;;;;;32.57;14.03;;;;;;;6.89;94.61;96572.16;4910884;29;20205;-72
2023/12/07 01:40:17;;;;;;;35.97;14.17;;;;;;;6.87;93.18;96546.47;4912288;29;20295;-72
2023/12/07 01:42:52;;;;;;;32.50;14.10;;;;;;;7.25;93.22;96592.13;4911123;29;20284;-73
2023/12/07 01:45:20;;;;;;;34.07;14.83;;;;;;;7.14;93.42;96588.31;4912086;29;20212;-75
2023/12/07 01:47:50;;;;;;;34.20;14.00;;;;;;;7.22;92.20;96594.00;4911734;29;20197;-77
2023/12/07 01:50:23;;;;;;;31.13;13.43;;;;;;;7.20;92.61;96594.06;4911434;29;20697;-75
2023/12/07 01:52:54;;;;;;;27.47;12.83;;;;;;;6.77;92.13;96510.88;4912165;29;20207;-74
2023/12/07 01:55:23;;;;;;;32.00;13.40;;;;;;;7.29;93.13;96590.28;4910752;29;20233;-75
2023/12/07 01:57:50;;;;;;;33.20;14.90;;;;;;;7.12;92.83;96575.50;4911819;29;20211;-75
2023/12/07 02:00:18;;;;;;;28.47;11.40;;;;;;;7.05;92.46;96591.25;4910739;29;20288;-78
2023/12/07 02:02:46;;;;;;;30.70;13.07;;;;;;;7.03;92.92;96582.75;4911540;29;20233;-75
2023/12/07 02:05:14;;;;;;;28.13;12.23;;;;;;;6.92;93.30;96549.72;4911263;29;20208;-77
2023/12/07 02:07:42;;;;;;;27.77;12.80;;;;;;;7.23;92.42;96590.53;4910779;29;20254;-77
2023/12/07 02:10:10;;;;;;;22.50;10.87;;;;;;;7.15;92.92;96587.44;4911938;29;20208;-73
2023/12/07 02:12:38;;;;;;;34.23;14.23;;;;;;;7.04;93.02;96597.31;4910137;29;20194;-74
2023/12/07 02:15:07;;;;;;;29.33;13.03;;;;;;;6.88;93.25;96599.66;4912109;29;20260;-74
2023/12/07 02:17:57;;;;;;;33.27;13.07;;;;;;;6.97;93.96;96603.56;4910684;29;20201;-75
2023/12/07 02:21:04;;;;;;;33.23;14.07;;;;;;;7.00;93.31;96604.31;4896522;29;20220;-75
2023/12/07 02:23:33;;;;;;;32.03;13.27;;;;;;;7.04;93.40;96595.56;4911585;29;20220;-75
2023/12/07 02:26:28;;;;;;;34.77;14.10;;;;;;;7.03;92.98;96611.06;4910366;29;20745;-75
2023/12/07 02:28:55;;;;;;;37.13;15.60;;;;;;;7.16;93.80;96617.41;4911586;29;20290;-75
2023/12/07 02:31:23;;;;;;;27.70;13.13;;;;;;;6.83;94.15;96590.41;4911266;29;20272;-75
2023/12/07 02:33:50;;;;;;;35.83;13.93;;;;;;;6.99;94.79;96607.78;4910219;29;20204;-74
2023/12/07 02:36:20;;;;;;;29.60;12.73;;;;;;;6.66;93.56;96562.75;4911283;29;20232;-74
2023/12/07 02:38:50;;;;;;;36.93;14.50;;;;;;;6.96;93.38;96605.34;4910054;29;20232;-74
2023/12/07 02:41:20;;;;;;;34.50;13.37;;;;;;;6.98;93.69;96588.09;4911377;29;20295;-76
2023/12/07 02:43:47;;;;;;;33.73;14.17;;;;;;;7.15;92.74;96615.75;4893799;29;20204;-75
2023/12/07 02:46:14;;;;;;;35.70;14.47;;;;;;;7.08;93.39;96619.47;4911296;29;20205;-70
2023/12/07 02:48:42;;;;;;;24.33;11.77;;;;;;;6.97;93.33;96619.00;4910932;29;20271;-70
2023/12/07 02:51:09;;;;;;;28.10;11.47;;;;;;;6.91;94.27;96608.97;4910075;29;20296;-70
2023/12/07 02:53:36;;;;;;;25.57;11.40;;;;;;;6.84;93.97;96604.97;4909844;29;20194;-71
2023/12/07 02:56:03;;;;;;;30.40;12.73;;;;;;;7.01;92.55;96605.97;4909891;29;20319;-69
2023/12/07 02:58:30;;;;;;;30.20;12.47;;;;;;;6.99;93.82;96599.22;4910879;29;20685;-70
2023/12/07 03:00:59;;;;;;;23.43;10.73;;;;;;;6.85;92.82;96598.91;4908559;29;20220;-70
2023/12/07 03:03:26;;;;;;;25.70;10.33;;;;;;;6.87;92.25;96608.25;4873448;29;20255;-70
2023/12/07 03:05:53;;;;;;;19.50;9.70;;;;;;;6.84;92.20;96589.53;4871571;29;20264;-72
2023/12/07 03:08:20;;;;;;;28.07;10.87;;;;;;;7.02;90.99;96614.53;4887240;29;20231;-70
2023/12/07 03:10:47;;;;;;;26.83;12.90;;;;;;;6.85;92.25;96615.19;4873800;29;20687;-77
2023/12/07 03:13:14;;;;;;;25.70;12.07;;;;;;;6.66;92.39;96618.53;4872559;29;20640;-72
2023/12/07 03:15:42;;;;;;;29.57;12.37;;;;;;;6.66;93.37;96616.75;4873442;29;20331;-69
2023/12/07 03:18:09;;;;;;;28.33;12.40;;;;;;;6.62;92.88;96594.63;4872196;29;20254;-76
2023/12/07 03:20:36;;;;;;;25.70;11.20;;;;;;;6.78;92.68;96618.06;4873406;29;20206;-74
2023/12/07 03:23:04;;;;;;;19.33;9.73;;;;;;;6.65;92.96;96620.25;4873922;29;20201;-73
2023/12/07 03:25:31;;;;;;;29.20;11.93;;;;;;;6.69;92.04;96613.25;4876706;29;20198;-74
2023/12/07 03:27:58;;;;;;;25.33;11.47;;;;;;;6.65;93.31;96616.84;4877391;29;20270;-73
2023/12/07 03:30:25;;;;;;;30.20;13.57;;;;;;;6.65;92.50;96614.25;4875826;29;20815;-73
2023/12/07 03:32:52;;;;;;;29.27;13.27;;;;;;;6.32;91.77;96565.75;4877124;29;20276;-74
2023/12/07 03:35:20;;;;;;;23.80;12.13;;;;;;;6.61;93.11;96616.13;4875518;29;20691;-75
2023/12/07 03:37:47;;;;;;;26.90;11.73;;;;;;;6.58;92.97;96622.22;4877167;29;20205;-76
2023/12/07 03:40:14;;;;;;;28.03;13.13;;;;;;;6.49;92.91;96614.81;4875840;29;20578;-75
2023/12/07 03:42:41;;;;;;;34.50;13.27;;;;;;;6.17;94.12;96578.31;4876673;29;20198;-75
2023/12/07 03:45:23;;;;;;;25.63;12.43;;;;;;;6.47;93.52;96614.03;4875258;29;20198;-76
2023/12/07 03:47:50;;;;;;;30.67;13.03;;;;;;;6.38;92.99;96578.38;4875439;29;20209;-75
2023/12/07 03:50:17;;;;;;;31.57;13.70;;;;;;;6.64;92.24;96604.84;4876687;29;20665;-74
2023/12/07 03:52:44;;;;;;;29.67;13.47;;;;;;;6.58;92.71;96604.19;4875322;29;20228;-74
2023/12/07 03:55:11;;;;;;;31.27;14.13;;;;;;;6.44;92.42;96597.88;4876608;29;20194;-73
2023/12/07 03:57:38;;;;;;;29.00;13.97;;;;;;;5.64;93.67;96547.63;4875736;29;20590;-74
2023/12/07 04:00:08;;;;;;;27.97;13.70;;;;;;;5.93;95.14;96604.88;4876236;29;20251;-76
2023/12/07 04:02:35;;;;;;;23.17;11.70;;;;;;;6.07;94.78;96603.50;4900600;29;20235;-77
2023/12/07 04:05:02;;;;;;;33.90;14.40;;;;;;;6.15;94.11;96595.50;4914829;29;20273;-73
2023/12/07 04:07:29;;;;;;;24.57;11.43;;;;;;;6.21;93.17;96591.00;4914659;29;20207;-74
2023/12/07 04:09:59;;;;;;;26.10;11.87;;;;;;;6.16;93.08;96585.16;4895668;29;20201;-70
2023/12/07 04:12:29;;;;;;;27.23;11.80;;;;;;;6.31;92.64;96586.34;4913716;29;20208;-70
2023/12/07 04:14:56;;;;;;;24.40;11.80;;;;;;;6.21;92.17;96577.31;4912645;29;20224;-76
2023/12/07 04:17:23;;;;;;;43.97;14.87;;;;;;;6.17;92.66;96586.88;4911602;29;20672;-71
2023/12/07 04:19:50;;;;;;;22.53;11.30;;;;;;;6.15;92.84;96588.66;4913456;29;20197;-71
2023/12/07 04:22:17;;;;;;;27.50;12.63;;;;;;;6.05;93.74;96564.19;4912693;29;20636;-71
2023/12/07 04:24:44;;;;;;;24.63;11.73;;;;;;;5.87;93.41;96528.84;4896377;29;20227;-70
2023/12/07 04:27:14;;;;;;;29.57;12.57;;;;;;;6.19;92.43;96572.22;4912201;29;20264;-76
2023/12/07 04:29:41;;;;;;;26.57;12.50;;;;;;;6.31;92.40;96591.50;4913517;29;20199;-70
2023/12/07 04:32:09;;;;;;;28.47;13.00;;;;;;;6.09;92.73;96601.72;4912152;29;20209;-71
2023/12/07 04:34:36;;;;;;;23.40;11.43;;;;;;;5.97;93.01;96594.44;4912688;29;20725;-71
2023/12/07 04:37:03;;;;;;;22.90;11.73;;;;;;;5.81;93.15;96575.28;4913109;29;20294;-70
2023/12/07 04:39:30;;;;;;;33.27;14.13;;;;;;;5.62;93.51;96594.78;4912448;29;20192;-70
2023/12/07 04:41:58;;;;;;;28.57;12.33;;;;;;;5.86;94.79;96595.69;4913156;29;20616;-70
2023/12/07 04:44:26;;;;;;;32.40;13.40;;;;;;;5.89;93.29;96601.59;4911874;29;20690;-72
2023/12/07 04:46:54;;;;;;;23.63;13.03;;;;;;;5.55;92.65;96557.34;4902299;29;20214;-71
2023/12/07 04:49:22;;;;;;;33.57;14.27;;;;;;;6.01;93.10;96620.88;4893224;29;20216;-69
2023/12/07 04:51:52;;;;;;;39.20;14.90;;;;;;;5.96;93.89;96615.03;4894491;29;20198;-75
2023/12/07 04:54:20;;;;;;;29.13;12.73;;;;;;;5.91;93.68;96612.66;4893648;29;20196;-70
2023/12/07 04:56:48;;;;;;;28.13;13.60;;;;;;;5.61;92.65;96546.84;4912937;29;20217;-70
2023/12/07 04:59:17;;;;;;;23.73;11.23;;;;;;;6.02;92.20;96620.00;4896623;29;20231;-75
2023/12/07 05:01:45;;;;;;;26.33;13.57;;;;;;;5.88;92.78;96643.56;4912965;29;20283;-74
2023/12/07 05:04:12;;;;;;;25.73;12.37;;;;;;;5.66;93.78;96598.91;4896305;29;20199;-74
2023/12/07 05:06:40;;;;;;;28.43;13.43;;;;;;;5.81;93.73;96634.38;4894652;29;20207;-74
2023/12/07 05:09:09;;;;;;;30.10;12.93;;;;;;;5.77;93.92;96648.19;4912826;29;20361;-75
2023/12/07 05:11:37;;;;;;;30.50;13.47;;;;;;;5.72;93.47;96612.41;4911321;29;20193;-75
2023/12/07 05:14:04;;;;;;;31.00;13.40;;;;;;;5.89;93.39;96650.41;4911215;29;20290;-75
2023/12/07 05:16:31;;;;;;;26.83;11.50;;;;;;;5.83;92.81;96639.47;4911978;29;20236;-72
2023/12/07 05:18:59;;;;;;;32.50;13.40;;;;;;;5.51;93.39;96656.75;4911611;29;20230;-74
2023/12/07 05:21:29;;;;;;;36.57;14.47;;;;;;;5.61;94.17;96675.28;4912531;29;20256;-76
2023/12/07 05:23:57;;;;;;;34.50;15.17;;;;;;;5.54;94.18;96663.53;4909131;29;20512;-76
2023/12/07 05:26:29;;;;;;;32.10;14.50;;;;;;;5.31;95.30;96655.72;4879926;29;20218;-69
2023/12/07 05:28:57;;;;;;;37.00;15.03;;;;;;;5.13;96.76;96654.53;4892248;29;20688;-75
2023/12/07 05:31:25;;;;;;;38.40;15.23;;;;;;;5.23;95.99;96662.81;4893779;29;20204;-74
2023/12/07 05:33:53;;;;;;;35.03;16.67;;;;;;;5.33;97.06;96659.91;4892410;29;20208;-76
2023/12/07 05:36:20;;;;;;;44.00;18.13;;;;;;;5.38;96.05;96667.47;4893059;29;20246;-76
2023/12/07 05:38:47;;;;;;;35.13;15.27;;;;;;;4.96;97.80;96651.66;4893329;29;20204;-74
2023/12/07 05:41:14;;;;;;;40.47;15.40;;;;;;;5.20;97.62;96668.88;4892280;29;20261;-74
2023/12/07 05:43:41;;;;;;;44.77;17.43;;;;;;;5.21;97.75;96659.47;4893353;29;20239;-74
2023/12/07 05:46:09;;;;;;;42.47;16.07;;;;;;;5.12;97.79;96667.44;4873821;29;20228;-71
2023/12/07 05:48:36;;;;;;;99.07;17.07;;;;;;;4.97;97.81;96646.47;4893044;29;20271;-73
2023/12/07 05:51:04;;;;;;;49.57;18.77;;;;;;;4.99;97.67;96643.03;4891529;29;21172;-71
2023/12/07 05:53:32;;;;;;;40.40;15.00;;;;;;;5.11;97.65;96678.59;4892926;29;20924;-74
2023/12/07 05:56:01;;;;;;;32.40;13.37;;;;;;;5.28;96.06;96681.47;4892050;29;20196;-74
2023/12/07 05:58:31;;;;;;;38.20;15.57;;;;;;;5.32;96.72;96672.78;4891908;29;20192;-74
2023/12/07 06:01:00;;;;;;;37.70;14.33;;;;;;;5.13;96.07;96646.03;4892563;29;20797;-72
2023/12/07 06:03:28;;;;;;;34.87;14.50;;;;;;;5.21;94.41;96667.16;4891220;29;20271;-71
2023/12/07 06:05:55;;;;;;;28.97;12.47;;;;;;;5.52;95.40;96689.25;4892789;29;20207;-74
2023/12/07 06:08:22;;;;;;;36.97;14.47;;;;;;;5.13;94.52;96597.25;4891530;29;20200;-74
2023/12/07 06:10:49;;;;;;;31.40;13.93;;;;;;;5.47;93.74;96683.44;4892519;29;20208;-71
2023/12/07 06:13:16;;;;;;;26.03;12.57;;;;;;;5.59;93.17;96675.31;4891954;29;20605;-72
2023/12/07 06:15:44;;;;;;;33.50;13.43;;;;;;;5.72;93.79;96683.47;4892037;29;20236;-72
2023/12/07 06:18:11;;;;;;;33.00;13.63;;;;;;;5.22;93.19;96697.06;4892217;29;20839;-69
2023/12/07 06:20:38;;;;;;;39.43;17.47;;;;;;;4.86;93.64;96606.66;4891304;29;20219;-74
2023/12/07 06:23:06;;;;;;;42.97;18.57;;;;;;;5.62;93.03;96700.09;4892410;29;20679;-72
2023/12/07 06:25:33;;;;;;;45.37;20.07;;;;;;;5.36;92.50;96700.03;4905220;29;20201;-69
2023/12/07 06:28:00;;;;;;;48.07;21.83;;;;;;;5.49;92.93;96670.53;4911085;29;20202;-70
2023/12/07 06:30:27;;;;;;;39.50;18.43;;;;;;;5.67;92.35;96675.06;4910199;29;20613;-70
2023/12/07 06:32:55;;;;;;;43.60;19.03;;;;;;;5.97;92.52;96702.38;4910755;29;20205;-74
2023/12/07 06:35:22;;;;;;;35.97;17.63;;;;;;;5.48;93.25;96674.00;4910811;29;20742;-73
2023/12/07 06:37:49;;;;;;;35.67;16.97;;;;;;;5.91;92.68;96700.00;4908692;29;20226;-71
2023/12/07 06:40:16;;;;;;;34.03;17.00;;;;;;;6.03;91.76;96696.19;4910885;29;20270;-71
2023/12/07 06:42:43;;;;;;;39.43;18.30;;;;;;;6.00;90.96;96715.13;4909632;29;20210;-71
2023/12/07 06:45:13;;;;;;;41.40;18.43;;;;;;;5.91;91.39;96702.59;4910582;29;20735;-70
2023/12/07 06:47:42;;;;;;;37.43;18.80;;;;;;;6.08;91.21;96717.44;4909828;29;20271;-70
2023/12/07 06:50:09;;;;;;;34.50;17.97;;;;;;;6.12;90.16;96714.69;4910685;29;20283;-70
2023/12/07 06:52:37;;;;;;;34.30;16.43;;;;;;;5.83;91.40;96660.00;4910830;29;20711;-71
2023/12/07 06:55:06;;;;;;;39.70;19.37;;;;;;;6.27;91.03;96711.63;4893077;29;20589;-71
2023/12/07 06:57:33;;;;;;;40.33;19.60;;;;;;;6.07;91.07;96695.19;4910923;29;20296;-71
2023/12/07 07:00:05;;;;;;;39.00;18.30;;;;;;;6.30;90.85;96723.53;4909475;29;20227;-71
2023/12/07 07:02:33;;;;;;;45.20;21.57;;;;;;;6.55;90.26;96725.19;4910736;29;20359;-75
2023/12/07 07:05:00;;;;;;;49.00;24.10;;;;;;;6.57;90.97;96727.75;4909454;29;20200;-74
2023/12/07 07:07:31;;;;;;;61.20;27.23;;;;;;;6.53;91.20;96732.13;4910774;29;20224;-72
2023/12/07 07:09:58;;;;;;;54.07;26.50;;;;;;;6.55;90.78;96735.47;4910477;29;20196;-75
2023/12/07 07:12:26;;;;;;;54.93;26.60;;;;;;;6.71;89.88;96737.53;4909525;29;20236;-74
2023/12/07 07:14:53;;;;;;;51.37;26.60;;;;;;;6.68;89.82;96746.19;4910609;29;20199;-75
2023/12/07 07:17:22;;;;;;;49.17;24.53;;;;;;;6.59;89.22;96752.50;4909429;29;20283;-74
2023/12/07 07:19:51;;;;;;;55.57;26.10;;;;;;;6.61;89.47;96743.91;4910629;29;20219;-76
2023/12/07 07:22:18;;;;;;;46.70;24.77;;;;;;;6.50;88.89;96737.41;4909246;29;20346;-72
2023/12/07 07:24:45;;;;;;;62.10;25.73;;;;;;;6.57;89.19;96746.56;4910213;29;20213;-73
2023/12/07 07:27:12;;;;;;;46.03;24.17;;;;;;;6.19;90.31;96746.19;4910083;29;20219;-71
2023/12/07 07:29:40;;;;;;;55.17;27.00;;;;;;;6.05;92.23;96744.09;4914493;29;20245;-71
2023/12/07 07:32:08;;;;;;;46.93;24.73;;;;;;;5.78;93.26;96750.06;4912769;29;20566;-74
2023/12/07 07:34:35;;;;;;;56.03;26.53;;;;;;;5.87;92.18;96744.69;4909503;29;20214;-75
2023/12/07 07:37:03;;;;;;;44.93;24.77;;;;;;;6.07;93.05;96752.59;4910722;29;20233;-73
2023/12/07 07:39:31;;;;;;;46.80;23.47;;;;;;;6.17;91.76;96753.13;4909269;29;20202;-72
2023/12/07 07:41:58;;;;;;;42.57;22.27;;;;;;;6.45;91.59;96749.56;4910696;29;20212;-71
2023/12/07 07:44:25;;;;;;;41.27;21.27;;;;;;;6.53;91.08;96737.28;4909748;29;20197;-69
2023/12/07 07:46:54;;;;;;;47.37;22.53;;;;;;;6.30;91.32;96711.53;4908474;29;20262;-74
2023/12/07 07:49:21;;;;;;;48.47;22.07;;;;;;;6.80;90.12;96753.47;4912392;29;20707;-74
2023/12/07 07:51:51;;;;;;;49.57;22.87;;;;;;;6.89;89.89;96722.28;4910484;29;20753;-70
2023/12/07 07:54:18;;;;;;;51.70;21.83;;;;;;;7.11;89.47;96740.34;4910588;29;20213;-74
2023/12/07 07:56:45;;;;;;;42.97;20.30;;;;;;;7.41;88.77;96759.81;4909170;29;20379;-74
2023/12/07 07:59:15;;;;;;;36.47;19.03;;;;;;;7.30;88.11;96725.88;4910423;29;20202;-75
2023/12/07 08:01:42;;;;;;;37.43;18.30;;;;;;;7.48;87.81;96753.50;4909744;29;20252;-72
2023/12/07 08:04:10;;;;;;;40.57;18.53;;;;;;;7.31;87.92;96732.72;4909564;29;20240;-74
2023/12/07 08:06:37;;;;;;;35.97;17.93;;;;;;;7.50;87.65;96762.00;4910441;29;20218;-73
2023/12/07 08:09:05;;;;;;;40.90;19.50;;;;;;;7.46;87.24;96751.91;4892241;29;20783;-73
2023/12/07 08:11:33;;;;;;;35.57;17.77;;;;;;;7.48;87.20;96755.25;4913901;29;20193;-75
2023/12/07 08:14:00;;;;;;;68.03;30.70;;;;;;;7.48;87.41;96748.34;4926745;29;20197;-70
2023/12/07 08:16:28;;;;;;;39.03;19.23;;;;;;;7.62;86.92;96746.09;4923705;29;20206;-76
2023/12/07 08:18:56;;;;;;;39.43;16.50;;;;;;;7.39;86.79;96757.28;4913894;29;20204;-73
2023/12/07 08:21:25;;;;;;;41.73;17.57;;;;;;;7.39;87.71;96765.03;4913769;29;20202;-73
2023/12/07 08:23:57;;;;;;;39.27;19.07;;;;;;;7.28;87.79;96712.22;4913371;29;20316;-74
2023/12/07 08:26:27;;;;;;;35.67;17.37;;;;;;;7.56;87.84;96759.22;4911600;29;20231;-75
2023/12/07 08:28:56;;;;;;;37.90;15.80;;;;;;;7.82;87.69;96771.09;4912970;29;20202;-74
2023/12/07 08:31:26;;;;;;;38.03;17.60;;;;;;;7.76;86.97;96750.72;4911408;29;20209;-72
2023/12/07 08:33:55;;;;;;;46.17;18.00;;;;;;;7.94;86.93;96768.88;4896095;29;20233;-76
2023/12/07 08:36:22;;;;;;;28.07;14.47;;;;;;;7.99;86.28;96764.38;4911825;29;20228;-75
2023/12/07 08:38:51;;;;;;;41.10;18.10;;;;;;;7.96;86.48;96763.66;4909868;29;20235;-74
2023/12/07 08:41:18;;;;;;;47.40;20.13;;;;;;;7.98;86.27;96767.84;4912364;29;20293;-75
2023/12/07 08:43:47;;;;;;;40.10;17.30;;;;;;;7.93;85.87;96771.53;4911092;29;20314;-74
2023/12/07 08:46:16;;;;;;;42.07;17.17;;;;;;;8.01;86.57;96764.31;4912438;29;20206;-76
2023/12/07 08:48:44;;;;;;;42.63;17.23;;;;;;;7.72;86.64;96734.53;4910797;29;20191;-76
2023/12/07 08:51:11;;;;;;;32.67;16.17;;;;;;;7.96;86.07;96741.28;4895476;29;20281;-74
2023/12/07 08:53:39;;;;;;;37.43;17.53;;;;;;;8.22;85.32;96766.84;4911538;29;20313;-73
2023/12/07 08:56:06;;;;;;;41.73;17.77;;;;;;;8.29;85.27;96749.41;4914848;29;20221;-70
2023/12/07 08:58:33;;;;;;;31.07;15.97;;;;;;;8.01;85.95;96731.63;4923739;29;20234;-74
2023/12/07 09:01:01;;;;;;;47.50;20.40;;;;;;;8.27;85.13;96750.38;4917538;29;20204;-73
2023/12/07 09:03:31;;;;;;;44.63;19.07;;;;;;;8.06;85.28;96741.75;4912944;29;20652;-77
2023/12/07 09:06:01;;;;;;;39.77;17.87;;;;;;;8.22;84.42;96730.72;4910818;29;20205;-76
2023/12/07 09:08:29;;;;;;;39.63;17.20;;;;;;;8.30;84.64;96721.88;4912437;29;20202;-73
2023/12/07 09:10:56;;;;;;;39.13;18.40;;;;;;;8.47;84.43;96753.00;4911900;29;20225;-74
2023/12/07 09:13:23;;;;;;;50.97;20.23;;;;;;;8.03;85.67;96742.72;4911586;29;20285;-74
2023/12/07 09:15:50;;;;;;;37.77;18.03;;;;;;;8.15;85.19;96729.34;4912058;29;20289;-77
2023/12/07 09:18:17;;;;;;;38.07;17.60;;;;;;;8.44;84.65;96740.19;4910644;29;20218;-73
2023/12/07 09:20:49;;;;;;;36.53;17.87;;;;;;;8.38;84.33;96737.88;4911367;29;20262;-72
2023/12/07 09:23:16;;;;;;;44.80;20.03;;;;;;;8.34;85.53;96726.00;4910732;29;20194;-74
2023/12/07 09:25:43;;;;;;;39.37;19.00;;;;;;;8.18;84.86;96687.09;4911918;29;20266;-72
2023/12/07 09:28:11;;;;;;;40.63;18.30;;;;;;;8.27;84.26;96745.22;4910881;29;20198;-75
2023/12/07 09:30:39;;;;;;;47.90;18.50;;;;;;;8.19;84.45;96741.19;4911749;29;20230;-71
2023/12/07 09:33:06;;;;;;;40.23;19.73;;;;;;;8.29;85.09;96725.34;4910678;29;20281;-73
2023/12/07 09:35:34;;;;;;;51.30;20.20;;;;;;;8.24;84.29;96687.66;4910587;29;20210;-76
2023/12/07 09:38:02;;;;;;;39.47;18.50;;;;;;;8.17;85.45;96732.69;4911801;29;20298;-74
2023/12/07 09:40:30;;;;;;;44.20;18.93;;;;;;;7.94;87.43;96725.03;4919588;29;20213;-72
2023/12/07 09:42:58;;;;;;;42.30;20.20;;;;;;;8.07;87.57;96720.22;4925565;29;20211;-71
2023/12/07 09:45:26;;;;;;;39.77;19.33;;;;;;;8.24;86.62;96694.59;4894241;29;20313;-74
2023/12/07 09:47:55;;;;;;;49.97;20.73;;;;;;;8.15;85.42;96680.34;4911882;29;20203;-73
2023/12/07 09:50:30;;;;;;;43.60;21.23;;;;;;;8.40;85.86;96724.03;4894275;29;20202;-72
2023/12/07 09:52:58;;;;;;;44.87;21.00;;;;;;;8.60;85.67;96690.44;4910138;29;20206;-75
2023/12/07 09:55:35;;;;;;;46.83;21.93;;;;;;;8.78;85.00;96720.63;4911782;29;20962;-74
2023/12/07 09:58:06;;;;;;;49.97;23.43;;;;;;;9.11;84.45;96723.44;4909958;29;20297;-74
2023/12/07 10:00:36;;;;;;;59.70;26.20;;;;;;;9.13;83.27;96695.78;4911489;29;20191;-71
2023/12/07 10:03:07;;;;;;;53.07;26.53;;;;;;;8.73;83.70;96665.78;4910257;29;20272;-71
2023/12/07 10:05:54;;;;;;;55.33;26.97;;;;;;;8.95;83.94;96709.53;4910648;29;20198;-70
2023/12/07 10:08:27;;;;;;;50.07;24.63;;;;;;;9.04;83.25;96722.06;4910887;29;20198;-71
2023/12/07 10:11:09;;;;;;;45.60;20.33;;;;;;;9.05;83.04;96712.56;4909555;29;20286;-73
2023/12/07 10:13:40;;;;;;;43.37;16.10;;;;;;;8.52;83.02;96648.66;4910143;29;20740;-71
2023/12/07 10:16:16;;;;;;;34.03;14.07;;;;;;;8.70;83.52;96685.72;4910066;29;20624;-71
2023/12/07 10:18:43;;;;;;;35.27;13.77;;;;;;;8.60;83.87;96692.19;4909880;29;20248;-72
2023/12/07 10:21:12;;;;;;;41.90;17.00;;;;;;;8.72;83.75;96704.56;4911160;29;20191;-70
2023/12/07 10:23:47;;;;;;;40.57;14.80;;;;;;;8.98;83.23;96699.09;4912451;29;20631;-74
2023/12/07 10:26:19;;;;;;;31.13;12.33;;;;;;;8.85;82.37;96643.72;4918163;29;20253;-69
2023/12/07 10:28:53;;;;;;;33.77;12.40;;;;;;;8.73;82.64;96650.28;4911041;29;20283;-70
2023/12/07 10:31:21;;;;;;;41.33;14.17;;;;;;;9.28;82.63;96696.84;4910251;29;20206;-70
2023/12/07 10:33:49;;;;;;;34.63;11.90;;;;;;;8.65;84.57;96675.63;4909954;29;20191;-73
2023/12/07 10:36:17;;;;;;;31.63;12.03;;;;;;;8.62;85.14;96667.16;4909637;29;20271;-70
2023/12/07 10:38:45;;;;;;;37.60;13.43;;;;;;;8.99;85.18;96680.09;4910643;29;20218;-70
2023/12/07 10:41:14;;;;;;;42.67;15.57;;;;;;;9.16;84.25;96666.41;4909206;29;20191;-72
2023/12/07 10:43:51;;;;;;;35.63;13.57;;;;;;;9.13;84.25;96651.88;4893177;29;20205;-70
2023/12/07 10:46:22;;;;;;;35.77;12.50;;;;;;;9.15;83.71;96690.59;4909748;29;20206;-71
2023/12/07 10:48:54;;;;;;;36.83;13.63;;;;;;;9.06;84.06;96660.00;4910249;29;20290;-76
2023/12/07 10:51:49;;;;;;;26.73;11.50;;;;;;;9.42;84.26;96686.69;4910532;29;20250;-74
2023/12/07 10:54:22;;;;;;;39.37;13.67;;;;;;;9.10;84.33;96664.97;4908858;29;20260;-69
2023/12/07 10:56:50;;;;;;;38.03;13.20;;;;;;;9.13;83.95;96651.88;4910325;29;20199;-72
2023/12/07 10:59:19;;;;;;;29.97;11.87;;;;;;;9.42;82.98;96690.13;4909573;29;20721;-71
2023/12/07 11:01:57;;;;;;;35.57;12.43;;;;;;;9.34;82.96;96670.72;4909601;29;20297;-71
2023/12/07 11:04:26;;;;;;;34.60;12.13;;;;;;;9.17;83.62;96687.00;4893491;29;20562;-73
2023/12/07 11:06:59;;;;;;;29.33;10.93;;;;;;;9.14;83.53;96687.16;4911463;29;20211;-69
2023/12/07 11:09:33;;;;;;;40.30;11.83;;;;;;;8.99;83.33;96672.34;4902544;29;20289;-69
2023/12/07 11:12:36;;;;;;;34.73;11.60;;;;;;;9.26;83.30;96684.00;4910339;29;20298;-75
2023/12/07 11:15:05;;;;;;;25.17;9.23;;;;;;;8.78;83.16;96650.06;4885343;29;20277;-73
2023/12/07 11:18:02;;;;;;;25.17;8.33;;;;;;;9.40;81.97;96694.53;4910642;29;20248;-70
2023/12/07 11:20:41;;;;;;;23.87;8.80;;;;;;;9.57;81.54;96694.59;4880552;29;20597;-71
2023/12/07 11:23:09;;;;;;;28.53;10.30;;;;;;;9.19;81.56;96661.13;4910179;29;20222;-70
2023/12/07 11:25:37;;;;;;;24.57;8.67;;;;;;;9.52;81.75;96685.38;4909770;29;20277;-70
2023/12/07 11:28:07;;;;;;;30.13;9.83;;;;;;;9.61;80.87;96693.53;4909229;29;20679;-73
2023/12/07 11:30:36;;;;;;;25.60;8.47;;;;;;;9.63;80.13;96681.38;4910255;29;20198;-72
2023/12/07 11:33:05;;;;;;;33.60;10.23;;;;;;;9.44;81.21;96692.63;4908751;29;20688;-71